createdAt,value
2017-12-21T00:00:25.557Z,37.46
2017-12-21T00:01:25.551Z,34.84
2017-12-21T00:02:26.439Z,36.28
2017-12-21T00:03:25.531Z,32.62
2017-12-21T00:04:25.528Z,33.15
2017-12-21T00:05:25.525Z,31.75
2017-12-21T00:06:25.516Z,28.49
2017-12-21T00:07:25.510Z,30.80
2017-12-21T00:08:25.495Z,30.69
2017-12-21T00:09:25.490Z,28.61
2017-12-21T00:10:25.484Z,30.99
2017-12-21T00:11:25.481Z,32.90
2017-12-21T00:12:25.473Z,35.72
2017-12-21T00:13:25.478Z,34.09
2017-12-21T00:14:26.448Z,31.10
2017-12-21T00:15:25.453Z,30.67
2017-12-21T00:16:25.449Z,32.27
2017-12-21T00:17:25.442Z,30.72
2017-12-21T00:18:25.434Z,32.02
2017-12-21T00:19:25.428Z,30.54
2017-12-21T00:20:25.422Z,34.64
2017-12-21T00:21:25.418Z,33.58
2017-12-21T00:22:25.411Z,33.49
2017-12-21T00:23:25.407Z,29.05
2017-12-21T00:24:25.388Z,33.76
2017-12-21T00:25:25.388Z,28.12
2017-12-21T00:26:25.382Z,29.95
2017-12-21T00:27:25.372Z,27.48
2017-12-21T00:28:25.366Z,29.23
2017-12-21T00:29:25.360Z,27.09
2017-12-21T00:30:25.353Z,28.21
2017-12-21T00:31:25.357Z,24.63
2017-12-21T00:32:25.340Z,26.48
2017-12-21T00:33:25.338Z,26.38
2017-12-21T00:34:25.330Z,28.35
2017-12-21T00:35:25.329Z,25.82
2017-12-21T00:36:25.317Z,27.88
2017-12-21T00:37:25.322Z,27.04
2017-12-21T00:38:25.307Z,25.80
2017-12-21T00:39:25.297Z,27.27
2017-12-21T00:40:25.292Z,28.56
2017-12-21T00:41:25.299Z,26.96
2017-12-21T00:42:25.280Z,25.27
2017-12-21T00:43:25.267Z,27.79
2017-12-21T00:44:25.263Z,26.52
2017-12-21T00:45:25.255Z,27.80
2017-12-21T00:46:25.251Z,25.68
2017-12-21T00:47:25.247Z,26.03
2017-12-21T00:48:25.241Z,25.59
2017-12-21T00:49:25.224Z,23.54
2017-12-21T00:50:25.233Z,22.78
2017-12-21T00:51:25.220Z,23.55
2017-12-21T00:52:25.208Z,24.64
2017-12-21T00:53:25.206Z,22.56
2017-12-21T00:54:25.204Z,24.80
2017-12-21T00:55:25.189Z,23.76
2017-12-21T00:56:25.200Z,24.90
2017-12-21T00:57:25.176Z,26.56
2017-12-21T00:58:25.164Z,23.38
2017-12-21T00:59:25.169Z,26.16
2017-12-21T01:00:25.162Z,25.37
2017-12-21T01:01:25.152Z,25.42
2017-12-21T01:02:25.150Z,21.88
2017-12-21T01:03:25.139Z,23.78
2017-12-21T01:04:25.128Z,25.20
2017-12-21T01:05:25.123Z,24.79
2017-12-21T01:06:25.120Z,23.56
2017-12-21T01:07:25.110Z,23.78
2017-12-21T01:08:25.117Z,21.52
2017-12-21T01:09:25.097Z,22.60
2017-12-21T01:10:25.108Z,22.48
2017-12-21T01:11:25.089Z,23.56
2017-12-21T01:12:25.076Z,21.47
2017-12-21T01:13:25.078Z,20.87
2017-12-21T01:14:25.072Z,20.78
2017-12-21T01:15:25.060Z,24.76
2017-12-21T01:16:25.054Z,26.83
2017-12-21T01:17:25.050Z,23.77
2017-12-21T01:18:25.053Z,21.92
2017-12-21T01:19:25.030Z,24.50
2017-12-21T01:20:25.022Z,25.15
2017-12-21T01:21:25.022Z,28.41
2017-12-21T01:22:25.011Z,23.65
2017-12-21T01:23:25.005Z,21.56
2017-12-21T01:24:24.999Z,21.75
2017-12-21T01:25:24.997Z,24.84
2017-12-21T01:26:24.989Z,20.54
2017-12-21T01:27:24.982Z,21.08
2017-12-21T01:28:24.967Z,19.62
2017-12-21T01:29:24.970Z,21.23
2017-12-21T01:30:24.967Z,21.13
2017-12-21T01:31:24.961Z,24.21
2017-12-21T01:32:24.951Z,22.98
2017-12-21T01:33:24.947Z,20.92
2017-12-21T01:34:24.939Z,22.60
2017-12-21T01:35:24.925Z,24.80
2017-12-21T01:36:24.920Z,25.22
2017-12-21T01:37:24.917Z,22.72
2017-12-21T01:38:24.904Z,21.61
2017-12-21T01:39:25.480Z,23.62
2017-12-21T01:40:25.485Z,23.07
2017-12-21T01:41:24.881Z,22.29
2017-12-21T01:42:24.882Z,21.26
2017-12-21T01:43:24.878Z,22.50
2017-12-21T01:44:24.870Z,20.52
2017-12-21T01:45:24.869Z,19.98
2017-12-21T01:46:24.857Z,24.04
2017-12-21T01:47:24.851Z,25.34
2017-12-21T01:48:24.846Z,23.38
2017-12-21T01:49:24.842Z,22.39
2017-12-21T01:50:24.832Z,21.41
2017-12-21T01:51:24.825Z,24.76
2017-12-21T01:52:24.815Z,22.04
2017-12-21T01:53:24.807Z,24.58
2017-12-21T01:54:24.812Z,23.20
2017-12-21T01:55:24.795Z,22.46
2017-12-21T01:56:24.791Z,22.20
2017-12-21T01:57:24.792Z,23.01
2017-12-21T01:58:24.782Z,22.74
2017-12-21T01:59:25.495Z,21.49
2017-12-21T02:00:24.767Z,23.04
2017-12-21T02:01:24.761Z,24.50
2017-12-21T02:02:24.750Z,25.00
2017-12-21T02:03:24.744Z,23.74
2017-12-21T02:04:25.483Z,27.82
2017-12-21T02:05:24.737Z,22.16
2017-12-21T02:06:24.733Z,22.81
2017-12-21T02:07:24.719Z,22.16
2017-12-21T02:08:24.713Z,20.44
2017-12-21T02:09:24.708Z,20.90
2017-12-21T02:10:24.700Z,21.44
2017-12-21T02:11:24.694Z,20.94
2017-12-21T02:12:24.688Z,20.98
2017-12-21T02:13:25.504Z,22.07
2017-12-21T02:14:24.680Z,23.98
2017-12-21T02:15:24.664Z,21.31
2017-12-21T02:16:25.496Z,21.42
2017-12-21T02:17:24.653Z,21.61
2017-12-21T02:18:24.653Z,20.37
2017-12-21T02:19:24.636Z,21.76
2017-12-21T02:20:24.634Z,20.97
2017-12-21T02:21:24.628Z,20.03
2017-12-21T02:22:24.620Z,24.41
2017-12-21T02:23:24.616Z,24.16
2017-12-21T02:24:24.607Z,22.54
2017-12-21T02:25:24.611Z,22.52
2017-12-21T02:26:24.594Z,20.16
2017-12-21T02:27:24.586Z,21.11
2017-12-21T02:28:24.583Z,20.72
2017-12-21T02:29:24.582Z,22.37
2017-12-21T02:30:24.570Z,20.28
2017-12-21T02:31:24.559Z,20.77
2017-12-21T02:32:24.555Z,18.83
2017-12-21T02:33:24.539Z,22.38
2017-12-21T02:34:24.539Z,20.40
2017-12-21T02:35:24.533Z,20.69
2017-12-21T02:36:24.526Z,20.92
2017-12-21T02:37:24.523Z,20.83
2017-12-21T02:38:24.513Z,21.14
2017-12-21T02:39:24.510Z,21.29
2017-12-21T02:40:24.520Z,23.86
2017-12-21T02:41:24.498Z,22.17
2017-12-21T02:42:24.500Z,22.79
2017-12-21T02:43:24.485Z,22.56
2017-12-21T02:44:24.487Z,23.10
2017-12-21T02:45:24.465Z,21.38
2017-12-21T02:46:24.475Z,20.15
2017-12-21T02:47:24.459Z,21.20
2017-12-21T02:48:24.454Z,23.13
2017-12-21T02:49:24.441Z,22.51
2017-12-21T02:50:24.434Z,19.18
2017-12-21T02:51:24.426Z,21.67
2017-12-21T02:52:24.425Z,24.43
2017-12-21T02:53:24.419Z,23.75
2017-12-21T02:54:24.410Z,21.77
2017-12-21T02:55:24.407Z,23.70
2017-12-21T02:56:24.403Z,22.74
2017-12-21T02:57:24.385Z,20.66
2017-12-21T02:58:24.395Z,21.26
2017-12-21T02:59:24.380Z,21.97
2017-12-21T03:00:24.366Z,22.24
2017-12-21T03:01:24.363Z,22.84
2017-12-21T03:02:24.359Z,23.47
2017-12-21T03:03:24.350Z,22.66
2017-12-21T03:04:25.013Z,24.12
2017-12-21T03:05:24.337Z,23.36
2017-12-21T03:06:24.322Z,25.47
2017-12-21T03:07:24.343Z,25.25
2017-12-21T03:08:24.328Z,24.60
2017-12-21T03:09:24.314Z,25.48
2017-12-21T03:10:24.308Z,28.67
2017-12-21T03:11:24.292Z,27.14
2017-12-21T03:12:24.280Z,27.05
2017-12-21T03:13:24.282Z,27.33
2017-12-21T03:14:24.270Z,27.80
2017-12-21T03:15:24.269Z,24.89
2017-12-21T03:16:24.264Z,27.40
2017-12-21T03:17:24.259Z,26.66
2017-12-21T03:18:24.251Z,26.84
2017-12-21T03:19:24.248Z,26.93
2017-12-21T03:20:24.246Z,25.69
2017-12-21T03:21:24.236Z,26.39
2017-12-21T03:22:24.223Z,26.05
2017-12-21T03:23:24.225Z,28.20
2017-12-21T03:24:24.211Z,25.76
2017-12-21T03:25:24.203Z,27.51
2017-12-21T03:26:24.201Z,27.06
2017-12-21T03:27:24.190Z,26.01
2017-12-21T03:28:24.183Z,24.21
2017-12-21T03:29:24.186Z,26.18
2017-12-21T03:30:24.175Z,26.29
2017-12-21T03:31:24.160Z,25.58
2017-12-21T03:32:24.156Z,31.00
2017-12-21T03:33:24.159Z,28.70
2017-12-21T03:34:24.145Z,25.44
2017-12-21T03:35:24.140Z,24.12
2017-12-21T03:36:24.135Z,23.93
2017-12-21T03:37:24.140Z,22.79
2017-12-21T03:38:24.121Z,22.76
2017-12-21T03:39:24.114Z,20.49
2017-12-21T03:40:24.111Z,23.39
2017-12-21T03:41:24.108Z,24.63
2017-12-21T03:42:24.095Z,24.71
2017-12-21T03:43:24.084Z,24.96
2017-12-21T03:44:24.080Z,22.81
2017-12-21T03:45:24.073Z,24.47
2017-12-21T03:46:24.063Z,21.96
2017-12-21T03:47:24.060Z,24.11
2017-12-21T03:48:24.054Z,23.78
2017-12-21T03:49:24.046Z,25.35
2017-12-21T03:50:24.043Z,23.08
2017-12-21T03:51:24.038Z,25.77
2017-12-21T03:52:24.027Z,25.72
2017-12-21T03:53:24.022Z,28.78
2017-12-21T03:54:24.012Z,26.42
2017-12-21T03:55:24.531Z,27.58
2017-12-21T03:56:24.002Z,26.81
2017-12-21T03:57:24.536Z,26.90
2017-12-21T03:58:23.991Z,27.05
2017-12-21T03:59:23.980Z,28.23
2017-12-21T04:00:24.532Z,25.46
2017-12-21T04:01:23.968Z,27.81
2017-12-21T04:02:23.960Z,24.25
2017-12-21T04:03:23.957Z,20.44
2017-12-21T04:04:23.950Z,22.45
2017-12-21T04:05:23.937Z,20.46
2017-12-21T04:06:23.935Z,20.94
2017-12-21T04:07:23.933Z,22.86
2017-12-21T04:08:23.927Z,22.53
2017-12-21T04:09:23.920Z,22.01
2017-12-21T04:10:23.905Z,22.36
2017-12-21T04:11:23.899Z,23.55
2017-12-21T04:12:23.893Z,23.60
2017-12-21T04:13:23.892Z,27.25
2017-12-21T04:14:23.881Z,22.38
2017-12-21T04:15:23.877Z,25.43
2017-12-21T04:16:23.870Z,22.66
2017-12-21T04:17:23.868Z,22.45
2017-12-21T04:18:23.860Z,20.25
2017-12-21T04:19:23.854Z,20.52
2017-12-21T04:20:23.856Z,25.16
2017-12-21T04:21:23.837Z,21.38
2017-12-21T04:22:23.832Z,24.68
2017-12-21T04:23:23.822Z,22.84
2017-12-21T04:24:23.820Z,23.90
2017-12-21T04:25:23.808Z,21.42
2017-12-21T04:26:23.804Z,24.36
2017-12-21T04:27:23.795Z,22.44
2017-12-21T04:28:23.788Z,23.30
2017-12-21T04:29:23.782Z,24.23
2017-12-21T04:30:23.778Z,23.80
2017-12-21T04:31:23.774Z,23.14
2017-12-21T04:32:23.766Z,20.92
2017-12-21T04:33:23.754Z,25.70
2017-12-21T04:34:23.744Z,24.16
2017-12-21T04:35:23.749Z,22.05
2017-12-21T04:36:23.736Z,24.88
2017-12-21T04:37:23.732Z,23.07
2017-12-21T04:38:23.725Z,22.89
2017-12-21T04:39:23.716Z,24.40
2017-12-21T04:40:23.700Z,23.76
2017-12-21T04:41:23.700Z,22.65
2017-12-21T04:42:23.698Z,22.71
2017-12-21T04:43:23.682Z,23.27
2017-12-21T04:44:23.684Z,22.72
2017-12-21T04:45:23.670Z,21.39
2017-12-21T04:46:23.694Z,20.85
2017-12-21T04:47:23.663Z,23.01
2017-12-21T04:48:23.655Z,25.71
2017-12-21T04:49:23.657Z,23.97
2017-12-21T04:50:23.645Z,22.64
2017-12-21T04:51:23.644Z,20.08
2017-12-21T04:52:23.633Z,23.16
2017-12-21T04:53:23.626Z,24.76
2017-12-21T04:54:23.622Z,23.30
2017-12-21T04:55:23.609Z,20.88
2017-12-21T04:56:23.603Z,23.98
2017-12-21T04:57:23.596Z,23.22
2017-12-21T04:58:23.589Z,23.18
2017-12-21T04:59:23.585Z,22.38
2017-12-21T05:00:23.577Z,22.86
2017-12-21T05:01:23.571Z,22.14
2017-12-21T05:02:23.570Z,21.26
2017-12-21T05:03:23.557Z,20.96
2017-12-21T05:03:35.558Z,0.82
2017-12-21T05:05:23.550Z,20.59
2017-12-21T05:06:23.544Z,18.90
2017-12-21T05:07:23.537Z,19.94
2017-12-21T05:08:23.527Z,20.94
2017-12-21T05:09:23.521Z,21.04
2017-12-21T05:10:23.520Z,19.72
2017-12-21T05:11:23.505Z,21.02
2017-12-21T05:12:23.505Z,20.17
2017-12-21T05:13:23.499Z,21.14
2017-12-21T05:14:23.489Z,18.80
2017-12-21T05:15:23.478Z,20.24
2017-12-21T05:16:23.469Z,21.14
2017-12-21T05:17:23.472Z,23.48
2017-12-21T05:18:23.458Z,21.66
2017-12-21T05:19:23.454Z,21.96
2017-12-21T05:20:23.452Z,18.72
2017-12-21T05:21:23.447Z,18.56
2017-12-21T05:22:23.438Z,21.35
2017-12-21T05:23:23.428Z,17.51
2017-12-21T05:24:23.424Z,19.98
2017-12-21T05:25:23.419Z,21.67
2017-12-21T05:26:27.394Z,19.62
2017-12-21T05:27:23.535Z,20.69
2017-12-21T05:28:25.665Z,20.66
2017-12-21T05:29:23.393Z,18.62
2017-12-21T05:30:23.390Z,20.40
2017-12-21T05:31:23.379Z,18.80
2017-12-21T05:32:23.378Z,19.77
2017-12-21T05:33:23.364Z,20.05
2017-12-21T05:34:23.354Z,18.44
2017-12-21T05:35:23.356Z,17.62
2017-12-21T05:36:23.343Z,22.50
2017-12-21T05:37:23.346Z,20.02
2017-12-21T05:38:23.328Z,17.11
2017-12-21T05:39:23.333Z,16.96
2017-12-21T05:40:23.326Z,19.66
2017-12-21T05:41:23.303Z,20.54
2017-12-21T05:42:23.308Z,20.14
2017-12-21T05:43:23.291Z,18.17
2017-12-21T05:44:23.296Z,18.95
2017-12-21T05:45:23.299Z,17.88
2017-12-21T05:46:23.274Z,19.19
2017-12-21T05:47:23.268Z,18.80
2017-12-21T05:48:23.285Z,20.60
2017-12-21T05:49:23.256Z,20.37
2017-12-21T05:50:23.247Z,18.34
2017-12-21T05:51:24.082Z,19.62
2017-12-21T05:52:23.236Z,22.50
2017-12-21T05:53:23.237Z,19.96
2017-12-21T05:54:23.225Z,18.04
2017-12-21T05:55:23.215Z,18.12
2017-12-21T05:56:23.225Z,19.11
2017-12-21T05:57:23.207Z,19.08
2017-12-21T05:58:23.200Z,21.95
2017-12-21T05:59:23.190Z,19.32
2017-12-21T06:00:23.182Z,17.11
2017-12-21T06:01:23.177Z,18.68
2017-12-21T06:02:23.172Z,18.35
2017-12-21T06:03:23.182Z,19.47
2017-12-21T06:04:23.156Z,20.72
2017-12-21T06:05:23.150Z,18.95
2017-12-21T06:06:23.144Z,18.37
2017-12-21T06:07:23.140Z,16.74
2017-12-21T06:08:23.138Z,20.14
2017-12-21T06:09:23.124Z,20.61
2017-12-21T06:10:23.118Z,17.62
2017-12-21T06:11:23.112Z,16.19
2017-12-21T06:12:23.104Z,18.34
2017-12-21T06:13:23.100Z,16.88
2017-12-21T06:14:23.094Z,21.14
2017-12-21T06:15:23.080Z,18.85
2017-12-21T06:16:23.074Z,18.03
2017-12-21T06:17:23.072Z,19.32
2017-12-21T06:18:23.069Z,19.46
2017-12-21T06:19:23.058Z,19.70
2017-12-21T06:20:23.061Z,22.75
2017-12-21T06:21:23.044Z,23.20
2017-12-21T06:22:23.050Z,20.45
2017-12-21T06:23:23.030Z,19.86
2017-12-21T06:24:23.024Z,19.68
2017-12-21T06:25:23.017Z,19.40
2017-12-21T06:26:23.016Z,19.72
2017-12-21T06:27:23.003Z,20.84
2017-12-21T06:28:22.997Z,18.86
2017-12-21T06:29:22.984Z,18.32
2017-12-21T06:30:22.987Z,18.89
2017-12-21T06:31:22.980Z,19.55
2017-12-21T06:32:22.976Z,18.88
2017-12-21T06:33:22.966Z,19.90
2017-12-21T06:34:22.962Z,17.94
2017-12-21T06:35:22.955Z,17.58
2017-12-21T06:36:22.953Z,19.14
2017-12-21T06:37:22.944Z,20.21
2017-12-21T06:38:22.934Z,18.33
2017-12-21T06:39:22.923Z,18.23
2017-12-21T06:40:22.919Z,19.55
2017-12-21T06:41:22.910Z,16.61
2017-12-21T06:42:22.904Z,17.23
2017-12-21T06:43:23.598Z,19.30
2017-12-21T06:44:22.891Z,19.30
2017-12-21T06:45:22.886Z,19.85
2017-12-21T06:46:22.878Z,18.54
2017-12-21T06:47:22.872Z,19.49
2017-12-21T06:48:22.867Z,18.02
2017-12-21T06:49:22.863Z,18.60
2017-12-21T06:50:22.856Z,18.15
2017-12-21T06:51:22.846Z,17.16
2017-12-21T06:52:23.601Z,20.92
2017-12-21T06:53:22.843Z,20.34
2017-12-21T06:54:22.826Z,19.72
2017-12-21T06:55:22.810Z,17.56
2017-12-21T06:56:22.815Z,18.37
2017-12-21T06:57:22.840Z,17.88
2017-12-21T06:58:22.804Z,18.51
2017-12-21T06:59:23.603Z,18.07
2017-12-21T07:00:22.843Z,20.38
2017-12-21T07:01:22.784Z,18.10
2017-12-21T07:02:22.778Z,19.12
2017-12-21T07:03:22.765Z,20.43
2017-12-21T07:04:22.760Z,19.12
2017-12-21T07:05:22.763Z,19.73
2017-12-21T07:06:22.754Z,21.13
2017-12-21T07:07:22.749Z,21.53
2017-12-21T07:08:22.741Z,22.87
2017-12-21T07:09:22.732Z,22.80
2017-12-21T07:10:22.736Z,22.73
2017-12-21T07:11:22.710Z,25.08
2017-12-21T07:12:22.718Z,25.44
2017-12-21T07:13:22.702Z,25.96
2017-12-21T07:14:22.696Z,23.08
2017-12-21T07:15:22.688Z,30.14
2017-12-21T07:16:22.682Z,60.92
2017-12-21T07:17:22.677Z,62.39
2017-12-21T07:18:22.671Z,32.12
2017-12-21T07:19:22.671Z,26.44
2017-12-21T07:20:22.660Z,24.24
2017-12-21T07:21:22.655Z,28.51
2017-12-21T07:22:23.611Z,27.74
2017-12-21T07:23:22.632Z,32.16
2017-12-21T07:24:22.680Z,28.32
2017-12-21T07:25:22.630Z,22.95
2017-12-21T07:26:22.613Z,23.70
2017-12-21T07:27:22.610Z,25.37
2017-12-21T07:28:22.605Z,24.12
2017-12-21T07:29:22.605Z,22.80
2017-12-21T07:30:23.114Z,25.66
2017-12-21T07:31:22.585Z,28.88
2017-12-21T07:32:22.581Z,27.46
2017-12-21T07:33:22.578Z,27.86
2017-12-21T07:34:22.578Z,25.16
2017-12-21T07:35:22.555Z,27.86
2017-12-21T07:36:23.113Z,33.04
2017-12-21T07:37:22.546Z,29.74
2017-12-21T07:38:22.535Z,29.17
2017-12-21T07:39:22.527Z,33.08
2017-12-21T07:40:22.521Z,26.62
2017-12-21T07:41:22.515Z,26.82
2017-12-21T07:42:22.510Z,31.40
2017-12-21T07:43:22.505Z,26.54
2017-12-21T07:44:22.498Z,27.14
2017-12-21T07:45:22.496Z,25.59
2017-12-21T07:46:22.494Z,27.49
2017-12-21T07:47:22.478Z,23.90
2017-12-21T07:48:22.472Z,22.40
2017-12-21T07:49:22.480Z,24.42
2017-12-21T07:50:22.474Z,24.82
2017-12-21T07:51:22.699Z,26.24
2017-12-21T07:52:22.442Z,25.52
2017-12-21T07:53:22.438Z,27.07
2017-12-21T07:54:22.432Z,27.66
2017-12-21T07:55:22.422Z,29.86
2017-12-21T07:56:22.416Z,31.98
2017-12-21T07:57:22.420Z,26.24
2017-12-21T07:58:22.412Z,28.07
2017-12-21T07:59:22.399Z,26.63
2017-12-21T08:00:22.402Z,25.54
2017-12-21T08:01:22.389Z,25.82
2017-12-21T08:02:22.383Z,28.41
2017-12-21T08:03:22.377Z,30.78
2017-12-21T08:04:22.369Z,28.04
2017-12-21T08:05:22.357Z,27.32
2017-12-21T08:06:22.356Z,35.34
2017-12-21T08:07:22.345Z,32.88
2017-12-21T08:08:22.341Z,29.94
2017-12-21T08:09:23.132Z,29.20
2017-12-21T08:10:22.324Z,32.93
2017-12-21T08:11:22.322Z,32.02
2017-12-21T08:12:22.315Z,32.56
2017-12-21T08:13:22.306Z,32.03
2017-12-21T08:14:22.302Z,35.99
2017-12-21T08:15:22.298Z,31.01
2017-12-21T08:16:22.290Z,33.40
2017-12-21T08:17:22.286Z,33.82
2017-12-21T08:18:22.282Z,30.98
2017-12-21T08:19:22.272Z,31.73
2017-12-21T08:20:22.264Z,33.12
2017-12-21T08:21:22.262Z,33.58
2017-12-21T08:22:22.252Z,35.57
2017-12-21T08:23:22.241Z,40.55
2017-12-21T08:24:23.156Z,41.92
2017-12-21T08:25:22.231Z,39.08
2017-12-21T08:26:22.217Z,41.46
2017-12-21T08:27:23.141Z,37.04
2017-12-21T08:28:23.141Z,31.72
2017-12-21T08:29:22.210Z,29.85
2017-12-21T08:30:23.140Z,35.49
2017-12-21T08:31:22.193Z,30.00
2017-12-21T08:32:22.181Z,31.51
2017-12-21T08:33:22.188Z,31.73
2017-12-21T08:34:22.170Z,32.26
2017-12-21T08:35:22.164Z,30.56
2017-12-21T08:36:22.161Z,30.34
2017-12-21T08:37:22.156Z,30.55
2017-12-21T08:38:22.148Z,31.51
2017-12-21T08:39:22.141Z,33.62
2017-12-21T08:40:22.137Z,36.43
2017-12-21T08:41:22.144Z,33.38
2017-12-21T08:42:22.124Z,33.45
2017-12-21T08:43:22.118Z,30.76
2017-12-21T08:44:22.113Z,32.11
2017-12-21T08:45:22.644Z,34.53
2017-12-21T08:46:22.100Z,36.26
2017-12-21T08:47:22.092Z,38.31
2017-12-21T08:48:22.095Z,39.45
2017-12-21T08:49:22.080Z,38.36
2017-12-21T08:50:22.070Z,33.52
2017-12-21T08:51:22.071Z,39.48
2017-12-21T08:52:22.061Z,43.94
2017-12-21T08:53:22.053Z,43.50
2017-12-21T08:54:22.047Z,48.78
2017-12-21T08:55:22.044Z,43.68
2017-12-21T08:56:22.038Z,45.00
2017-12-21T08:57:22.032Z,48.44
2017-12-21T08:58:22.028Z,51.15
2017-12-21T08:59:22.016Z,44.08
2017-12-21T09:00:22.018Z,46.12
2017-12-21T09:01:22.007Z,43.80
2017-12-21T09:02:22.001Z,44.84
2017-12-21T09:03:21.993Z,46.98
2017-12-21T09:04:21.985Z,44.77
2017-12-21T09:05:21.977Z,44.37
2017-12-21T09:06:21.972Z,39.68
2017-12-21T09:07:21.964Z,39.46
2017-12-21T09:08:21.967Z,35.99
2017-12-21T09:09:21.953Z,31.56
2017-12-21T09:10:21.946Z,33.17
2017-12-21T09:11:21.941Z,41.23
2017-12-21T09:12:21.938Z,36.24
2017-12-21T09:13:21.929Z,33.76
2017-12-21T09:14:21.924Z,33.79
2017-12-21T09:15:21.915Z,34.76
2017-12-21T09:16:22.657Z,31.94
2017-12-21T09:17:21.905Z,34.79
2017-12-21T09:18:21.902Z,32.93
2017-12-21T09:19:21.891Z,32.48
2017-12-21T09:20:24.662Z,32.65
2017-12-21T09:21:21.883Z,32.56
2017-12-21T09:22:22.659Z,31.76
2017-12-21T09:23:21.867Z,29.55
2017-12-21T09:24:21.857Z,28.79
2017-12-21T09:25:21.854Z,29.18
2017-12-21T09:26:21.849Z,30.25
2017-12-21T09:27:21.843Z,31.49
2017-12-21T09:27:33.848Z,1.36
2017-12-21T09:29:21.833Z,32.75
2017-12-21T09:30:21.823Z,29.33
2017-12-21T09:31:21.812Z,30.48
2017-12-21T09:32:21.821Z,30.94
2017-12-21T09:33:21.805Z,29.44
2017-12-21T09:34:21.801Z,27.83
2017-12-21T09:35:21.794Z,30.31
2017-12-21T09:36:21.850Z,30.66
2017-12-21T09:37:21.788Z,26.86
2017-12-21T09:38:21.777Z,29.60
2017-12-21T09:39:21.768Z,29.62
2017-12-21T09:40:21.761Z,29.00
2017-12-21T09:41:21.762Z,27.70
2017-12-21T09:42:21.763Z,27.40
2017-12-21T09:43:21.743Z,24.30
2017-12-21T09:44:21.737Z,24.87
2017-12-21T09:45:21.731Z,25.71
2017-12-21T09:46:21.723Z,28.34
2017-12-21T09:47:21.712Z,24.68
2017-12-21T09:48:21.711Z,23.38
2017-12-21T09:49:21.708Z,23.00
2017-12-21T09:50:21.701Z,23.06
2017-12-21T09:51:21.698Z,21.64
2017-12-21T09:52:21.735Z,23.48
2017-12-21T09:53:21.689Z,22.78
2017-12-21T09:54:21.681Z,22.16
2017-12-21T09:55:21.672Z,23.64
2017-12-21T09:56:21.666Z,24.87
2017-12-21T09:57:21.671Z,24.30
2017-12-21T09:58:21.662Z,24.64
2017-12-21T09:59:21.650Z,22.78
2017-12-21T10:00:21.644Z,24.59
2017-12-21T10:01:21.638Z,22.79
2017-12-21T10:02:22.172Z,22.35
2017-12-21T10:03:21.622Z,21.87
2017-12-21T10:04:21.611Z,18.90
2017-12-21T10:05:21.614Z,20.27
2017-12-21T10:06:21.600Z,23.63
2017-12-21T10:07:21.600Z,21.95
2017-12-21T10:08:21.595Z,23.44
2017-12-21T10:09:21.591Z,21.48
2017-12-21T10:10:21.591Z,21.51
2017-12-21T10:11:21.579Z,23.76
2017-12-21T10:12:21.571Z,22.01
2017-12-21T10:13:21.568Z,20.36
2017-12-21T10:14:21.558Z,21.00
2017-12-21T10:15:21.551Z,24.82
2017-12-21T10:16:22.177Z,22.66
2017-12-21T10:17:21.541Z,22.94
2017-12-21T10:18:21.535Z,21.11
2017-12-21T10:19:22.175Z,20.82
2017-12-21T10:20:21.521Z,20.87
2017-12-21T10:21:21.520Z,18.83
2017-12-21T10:22:21.508Z,17.96
2017-12-21T10:23:21.523Z,22.38
2017-12-21T10:24:21.501Z,19.51
2017-12-21T10:25:21.501Z,20.37
2017-12-21T10:26:21.491Z,20.87
2017-12-21T10:27:21.504Z,19.45
2017-12-21T10:28:21.477Z,19.90
2017-12-21T10:29:21.471Z,20.31
2017-12-21T10:30:21.462Z,21.06
2017-12-21T10:31:21.457Z,21.87
2017-12-21T10:32:21.452Z,18.99
2017-12-21T10:33:21.445Z,19.57
2017-12-21T10:34:22.188Z,18.44
2017-12-21T10:35:21.443Z,19.42
2017-12-21T10:36:21.431Z,18.09
2017-12-21T10:37:21.424Z,17.36
2017-12-21T10:38:21.418Z,16.85
2017-12-21T10:39:21.414Z,17.23
2017-12-21T10:40:21.408Z,15.86
2017-12-21T10:41:21.400Z,17.81
2017-12-21T10:42:22.188Z,16.50
2017-12-21T10:43:21.386Z,17.95
2017-12-21T10:44:21.380Z,15.26
2017-12-21T10:45:21.379Z,18.95
2017-12-21T10:46:21.376Z,18.99
2017-12-21T10:47:21.369Z,23.09
2017-12-21T10:48:21.361Z,18.54
2017-12-21T10:49:21.356Z,16.52
2017-12-21T10:50:21.360Z,18.44
2017-12-21T10:51:24.205Z,15.66
2017-12-21T10:52:21.341Z,18.54
2017-12-21T10:53:21.331Z,19.22
2017-12-21T10:54:21.327Z,16.57
2017-12-21T10:55:22.197Z,16.04
2017-12-21T10:56:21.310Z,16.32
2017-12-21T10:57:21.315Z,17.66
2017-12-21T10:58:22.189Z,14.76
2017-12-21T10:59:21.294Z,15.52
2017-12-21T11:00:21.289Z,17.86
2017-12-21T11:01:21.284Z,17.75
2017-12-21T11:02:21.278Z,17.41
2017-12-21T11:03:21.278Z,15.88
2017-12-21T11:04:21.269Z,18.10
2017-12-21T11:05:21.265Z,15.46
2017-12-21T11:06:21.258Z,16.06
2017-12-21T11:07:21.255Z,18.05
2017-12-21T11:08:21.249Z,17.61
2017-12-21T11:09:21.244Z,16.07
2017-12-21T11:10:21.237Z,18.47
2017-12-21T11:11:22.203Z,16.10
2017-12-21T11:12:22.204Z,16.26
2017-12-21T11:13:21.216Z,15.11
2017-12-21T11:14:21.212Z,15.72
2017-12-21T11:15:21.220Z,16.87
2017-12-21T11:16:21.204Z,15.14
2017-12-21T11:17:21.197Z,14.93
2017-12-21T11:18:21.190Z,16.19
2017-12-21T11:19:21.186Z,15.88
2017-12-21T11:20:21.180Z,18.50
2017-12-21T11:21:21.181Z,15.73
2017-12-21T11:22:21.165Z,15.23
2017-12-21T11:23:21.164Z,14.83
2017-12-21T11:24:21.153Z,16.03
2017-12-21T11:25:21.719Z,15.23
2017-12-21T11:26:21.154Z,14.47
2017-12-21T11:27:21.137Z,14.20
2017-12-21T11:28:21.132Z,14.60
2017-12-21T11:29:21.713Z,13.99
2017-12-21T11:30:21.140Z,16.89
2017-12-21T11:31:21.116Z,19.87
2017-12-21T11:32:21.113Z,16.65
2017-12-21T11:33:21.723Z,14.96
2017-12-21T11:34:21.100Z,17.01
2017-12-21T11:35:21.100Z,15.92
2017-12-21T11:36:21.096Z,19.16
2017-12-21T11:37:21.086Z,17.66
2017-12-21T11:38:21.083Z,20.03
2017-12-21T11:39:21.069Z,15.97
2017-12-21T11:40:21.067Z,15.74
2017-12-21T11:41:21.064Z,16.02
2017-12-21T11:42:21.058Z,14.17
2017-12-21T11:43:21.054Z,13.94
2017-12-21T11:44:21.049Z,14.70
2017-12-21T11:45:21.044Z,17.20
2017-12-21T11:46:23.717Z,14.77
2017-12-21T11:47:21.030Z,16.65
2017-12-21T11:48:21.026Z,16.25
2017-12-21T11:49:21.017Z,14.81
2017-12-21T11:50:21.032Z,13.68
2017-12-21T11:51:21.006Z,14.03
2017-12-21T11:52:21.000Z,13.12
2017-12-21T11:53:20.996Z,14.61
2017-12-21T11:54:21.720Z,15.46
2017-12-21T11:55:20.988Z,15.82
2017-12-21T11:56:20.980Z,14.90
2017-12-21T11:57:20.971Z,14.12
2017-12-21T11:58:20.982Z,13.50
2017-12-21T11:59:20.965Z,16.78
2017-12-21T12:00:21.024Z,17.58
2017-12-21T12:01:20.958Z,13.72
2017-12-21T12:02:20.952Z,15.66
2017-12-21T12:03:20.946Z,14.60
2017-12-21T12:04:21.723Z,13.37
2017-12-21T12:05:20.936Z,15.62
2017-12-21T12:06:20.927Z,13.30
2017-12-21T12:07:20.921Z,12.80
2017-12-21T12:08:20.926Z,13.05
2017-12-21T12:09:20.911Z,13.68
2017-12-21T12:10:20.939Z,14.19
2017-12-21T12:11:20.899Z,12.47
2017-12-21T12:12:20.895Z,13.06
2017-12-21T12:13:20.888Z,14.68
2017-12-21T12:14:20.911Z,14.92
2017-12-21T12:15:20.896Z,11.56
2017-12-21T12:16:20.879Z,10.94
2017-12-21T12:17:20.873Z,11.49
2017-12-21T12:18:20.867Z,12.21
2017-12-21T12:18:32.868Z,0.48
2017-12-21T12:20:20.880Z,12.80
2017-12-21T12:21:20.850Z,16.53
2017-12-21T12:22:20.846Z,13.56
2017-12-21T12:23:20.840Z,14.26
2017-12-21T12:24:20.834Z,15.10
2017-12-21T12:25:20.866Z,14.78
2017-12-21T12:26:20.826Z,14.05
2017-12-21T12:27:20.817Z,13.26
2017-12-21T12:28:20.810Z,16.06
2017-12-21T12:29:20.815Z,16.17
2017-12-21T12:30:20.804Z,14.81
2017-12-21T12:31:20.799Z,12.40
2017-12-21T12:32:20.789Z,14.55
2017-12-21T12:33:20.789Z,16.57
2017-12-21T12:34:20.843Z,13.69
2017-12-21T12:35:20.778Z,12.63
2017-12-21T12:36:20.779Z,13.82
2017-12-21T12:37:20.769Z,14.25
2017-12-21T12:38:20.774Z,13.86
2017-12-21T12:39:20.752Z,14.19
2017-12-21T12:40:20.749Z,15.38
2017-12-21T12:41:20.746Z,14.18
2017-12-21T12:42:20.764Z,12.53
2017-12-21T12:43:20.737Z,12.78
2017-12-21T12:44:20.731Z,12.34
2017-12-21T12:45:21.244Z,12.78
2017-12-21T12:46:20.717Z,13.45
2017-12-21T12:47:20.712Z,14.89
2017-12-21T12:48:20.705Z,13.33
2017-12-21T12:49:35.244Z,13.69
2017-12-21T12:50:25.747Z,12.94
2017-12-21T12:51:25.738Z,11.62
2017-12-21T12:52:25.735Z,13.90